Time;durP1;ratioP1;P1;durP2;ratioP2;P2;SDS_P1;SDS_P2;PMS_P1;PMS_P2;Temp;Humidity;BMP_temperature;BMP_pressure;BME280_temperature;BME280_humidity;BME280_pressure;Samples;Min_cycle;Max_cycle;Signal;HPM_P1;HPM_P2
2023/05/21 00:01:49;;;;;;;2.42;2.40;;;;;;;;;;4192303;28;20239;-59
2023/05/21 00:04:10;;;;;;;3.47;3.17;;;;;;;;;;4194879;28;20047;-59
2023/05/21 00:06:31;;;;;;;3.08;2.97;;;;;;;;;;4194535;28;20051;-59
2023/05/21 00:08:51;;;;;;;3.35;3.15;;;;;;;;;;4192356;28;20075;-59
2023/05/21 00:11:11;;;;;;;3.10;2.90;;;;;;;;;;4191905;28;20087;-59
2023/05/21 00:13:31;;;;;;;2.83;2.72;;;;;;;;;;4193128;28;20052;-59
2023/05/21 00:15:52;;;;;;;2.33;2.33;;;;;;;;;;4191767;28;20039;-59
2023/05/21 00:18:12;;;;;;;2.83;2.78;;;;;;;;;;4191133;28;20102;-59
2023/05/21 00:20:32;;;;;;;2.35;2.33;;;;;;;;;;4191591;28;20044;-59
2023/05/21 00:22:52;;;;;;;3.25;2.97;;;;;;;;;;4191219;28;20111;-59
2023/05/21 00:25:13;;;;;;;3.10;3.00;;;;;;;;;;4190833;28;20106;-59
2023/05/21 00:27:33;;;;;;;2.70;2.50;;;;;;;;;;4189990;28;20064;-59
2023/05/21 00:29:53;;;;;;;2.38;2.38;;;;;;;;;;4189634;28;20039;-59
2023/05/21 00:32:13;;;;;;;2.80;2.80;;;;;;;;;;4189074;28;20367;-59
2023/05/21 00:34:35;;;;;;;2.65;2.55;;;;;;;;;;4189783;28;20055;-59
2023/05/21 00:36:56;;;;;;;2.58;2.53;;;;;;;;;;4189847;28;20055;-59
2023/05/21 00:39:16;;;;;;;3.08;2.88;;;;;;;;;;4190030;28;20040;-59
2023/05/21 00:41:38;;;;;;;3.50;3.30;;;;;;;;;;4189736;28;20047;-59
2023/05/21 00:43:59;;;;;;;2.55;2.55;;;;;;;;;;4173748;28;20078;-59
2023/05/21 00:46:20;;;;;;;2.58;2.58;;;;;;;;;;4189447;28;20390;-59
2023/05/21 00:48:41;;;;;;;3.00;2.90;;;;;;;;;;4189818;28;20075;-59
2023/05/21 00:51:01;;;;;;;3.38;3.17;;;;;;;;;;4189751;28;20072;-59
2023/05/21 00:53:21;;;;;;;6.38;3.60;;;;;;;;;;4189922;28;20112;-59
2023/05/21 00:55:41;;;;;;;4.93;4.60;;;;;;;;;;4189544;28;20091;-59
2023/05/21 00:58:03;;;;;;;3.95;3.75;;;;;;;;;;4189498;28;20067;-59
2023/05/21 01:00:25;;;;;;;4.07;3.78;;;;;;;;;;4200017;28;20055;-59
2023/05/21 01:02:45;;;;;;;3.42;3.33;;;;;;;;;;4188689;28;20043;-59
2023/05/21 01:05:06;;;;;;;3.42;3.08;;;;;;;;;;4192814;28;20305;-59
2023/05/21 01:07:26;;;;;;;3.30;3.22;;;;;;;;;;4197010;28;20362;-59
2023/05/21 01:09:46;;;;;;;3.40;3.20;;;;;;;;;;4199443;28;20078;-60
2023/05/21 01:12:07;;;;;;;4.05;3.85;;;;;;;;;;4189397;28;20272;-59
2023/05/21 01:14:27;;;;;;;3.75;3.47;;;;;;;;;;4190897;28;20240;-59
2023/05/21 01:16:48;;;;;;;2.88;2.72;;;;;;;;;;4194169;28;20359;-58
2023/05/21 01:19:10;;;;;;;4.50;3.80;;;;;;;;;;4191640;28;20067;-59
2023/05/21 01:21:30;;;;;;;3.50;3.40;;;;;;;;;;4189544;28;20048;-59
2023/05/21 01:23:50;;;;;;;5.18;3.67;;;;;;;;;;4192079;28;20438;-59
2023/05/21 01:26:11;;;;;;;3.67;3.50;;;;;;;;;;4193543;28;20051;-59
2023/05/21 01:28:33;;;;;;;4.03;3.83;;;;;;;;;;4189439;28;20052;-59
2023/05/21 01:30:54;;;;;;;3.42;3.33;;;;;;;;;;4189713;28;20083;-59
2023/05/21 01:33:20;;;;;;;3.42;3.22;;;;;;;;;;4192669;28;20052;-58
2023/05/21 01:35:46;;;;;;;5.32;3.78;;;;;;;;;;4191375;28;20059;-59
2023/05/21 01:38:19;;;;;;;4.15;3.85;;;;;;;;;;4189650;28;20083;-59
2023/05/21 01:40:52;;;;;;;3.38;3.28;;;;;;;;;;4189999;28;20267;-59
2023/05/21 01:43:13;;;;;;;3.42;3.33;;;;;;;;;;4190996;28;20132;-59
2023/05/21 01:45:35;;;;;;;3.63;3.33;;;;;;;;;;4190529;28;20086;-60
2023/05/21 01:47:57;;;;;;;4.20;4.07;;;;;;;;;;4190356;28;20152;-59
2023/05/21 01:50:18;;;;;;;4.07;3.97;;;;;;;;;;4189252;28;20071;-59
2023/05/21 01:52:38;;;;;;;4.55;4.25;;;;;;;;;;4189603;28;20078;-59
2023/05/21 01:54:59;;;;;;;18.70;12.93;;;;;;;;;;4189708;28;20051;-59
2023/05/21 01:57:19;;;;;;;8.68;7.80;;;;;;;;;;4189575;28;20146;-59
2023/05/21 01:59:40;;;;;;;4.10;3.70;;;;;;;;;;4190328;28;20055;-59
2023/05/21 02:02:00;;;;;;;3.50;3.30;;;;;;;;;;4189804;28;20048;-58
2023/05/21 02:04:20;;;;;;;4.88;4.50;;;;;;;;;;4189764;28;20048;-59
2023/05/21 02:06:40;;;;;;;4.55;4.25;;;;;;;;;;4189258;28;20106;-59
2023/05/21 02:09:01;;;;;;;4.15;4.05;;;;;;;;;;4189095;28;20063;-59
2023/05/21 02:11:22;;;;;;;4.60;4.32;;;;;;;;;;4188718;28;20051;-59
2023/05/21 02:13:44;;;;;;;6.78;6.45;;;;;;;;;;4190031;28;20067;-58
2023/05/21 02:16:04;;;;;;;6.40;6.20;;;;;;;;;;4188713;28;20048;-59
2023/05/21 02:18:25;;;;;;;5.55;5.45;;;;;;;;;;4190685;28;20056;-59
2023/05/21 02:20:45;;;;;;;6.40;6.20;;;;;;;;;;4189042;28;20040;-59
2023/05/21 02:23:05;;;;;;;6.80;6.50;;;;;;;;;;4191379;28;20079;-59
2023/05/21 02:25:26;;;;;;;6.35;6.05;;;;;;;;;;4189531;28;20051;-60
2023/05/21 02:27:46;;;;;;;7.20;7.00;;;;;;;;;;4191373;28;20082;-59
2023/05/21 02:30:08;;;;;;;6.65;6.45;;;;;;;;;;4189216;28;20047;-59
2023/05/21 02:32:28;;;;;;;6.93;6.63;;;;;;;;;;4191793;28;20370;-59
2023/05/21 02:34:48;;;;;;;7.22;6.93;;;;;;;;;;4189534;28;20083;-59
2023/05/21 02:37:09;;;;;;;6.93;6.63;;;;;;;;;;4189726;28;20110;-58
2023/05/21 02:39:29;;;;;;;7.32;7.00;;;;;;;;;;4190484;28;20117;-59
2023/05/21 02:41:49;;;;;;;6.95;6.70;;;;;;;;;;4189485;28;20095;-59
2023/05/21 02:44:09;;;;;;;7.90;7.50;;;;;;;;;;4190322;28;20132;-59
2023/05/21 02:46:30;;;;;;;8.07;7.68;;;;;;;;;;4189887;28;20047;-59
2023/05/21 02:48:50;;;;;;;7.68;7.35;;;;;;;;;;4175709;28;20363;-59
2023/05/21 02:51:10;;;;;;;7.97;7.57;;;;;;;;;;4190960;28;20047;-59
2023/05/21 02:53:30;;;;;;;7.90;7.40;;;;;;;;;;4191442;28;20142;-58
2023/05/21 02:55:51;;;;;;;8.52;8.23;;;;;;;;;;4189838;28;20122;-59
2023/05/21 02:58:12;;;;;;;8.75;8.35;;;;;;;;;;4191815;28;20116;-58
2023/05/21 03:00:32;;;;;;;8.85;8.48;;;;;;;;;;4189509;28;20048;-59
2023/05/21 03:02:52;;;;;;;8.18;7.85;;;;;;;;;;4190576;28;20056;-59
2023/05/21 03:05:13;;;;;;;8.73;8.40;;;;;;;;;;4190079;28;20144;-59
2023/05/21 03:07:33;;;;;;;10.20;9.52;;;;;;;;;;4191998;28;20059;-59
2023/05/21 03:09:53;;;;;;;9.52;9.02;;;;;;;;;;4191153;28;20086;-59
2023/05/21 03:12:14;;;;;;;9.45;8.73;;;;;;;;;;4191241;28;20094;-59
2023/05/21 03:14:34;;;;;;;8.93;8.40;;;;;;;;;;4187922;28;20108;-59
2023/05/21 03:16:55;;;;;;;9.75;9.23;;;;;;;;;;4187855;28;20086;-60
2023/05/21 03:19:15;;;;;;;6.63;6.43;;;;;;;;;;4189170;28;20362;-59
2023/05/21 03:21:35;;;;;;;5.10;4.82;;;;;;;;;;4188976;28;20051;-59
2023/05/21 03:23:59;;;;;;;4.05;3.75;;;;;;;;;;4188991;28;20108;-59
2023/05/21 03:26:21;;;;;;;4.55;4.45;;;;;;;;;;4189400;28;20248;-59
2023/05/21 03:28:41;;;;;;;5.05;4.75;;;;;;;;;;4189823;28;20087;-59
2023/05/21 03:31:01;;;;;;;5.30;5.00;;;;;;;;;;4189725;28;20039;-59
2023/05/21 03:33:22;;;;;;;7.85;6.65;;;;;;;;;;4189952;28;20079;-60
2023/05/21 03:35:42;;;;;;;6.15;5.82;;;;;;;;;;4189528;28;20271;-60
2023/05/21 03:38:02;;;;;;;5.75;5.45;;;;;;;;;;4189578;28;20463;-59
2023/05/21 03:40:23;;;;;;;6.15;5.82;;;;;;;;;;4189719;28;20105;-59
2023/05/21 03:42:43;;;;;;;6.70;6.15;;;;;;;;;;4189027;28;20056;-59
2023/05/21 03:45:03;;;;;;;5.45;5.35;;;;;;;;;;4188902;28;20040;-59
2023/05/21 03:47:23;;;;;;;6.70;6.50;;;;;;;;;;4191367;28;20288;-60
2023/05/21 03:49:43;;;;;;;7.30;7.03;;;;;;;;;;4190687;28;20082;-59
2023/05/21 03:52:03;;;;;;;6.97;6.78;;;;;;;;;;4190256;28;20366;-59
2023/05/21 03:54:24;;;;;;;6.55;6.15;;;;;;;;;;4191361;28;20237;-59
2023/05/21 03:56:44;;;;;;;7.35;6.80;;;;;;;;;;4191867;28;20055;-59
2023/05/21 03:59:04;;;;;;;6.50;6.30;;;;;;;;;;4193231;28;20240;-59
2023/05/21 04:01:24;;;;;;;6.75;6.32;;;;;;;;;;4194433;28;20094;-59
2023/05/21 04:03:45;;;;;;;7.32;6.80;;;;;;;;;;4190879;28;20366;-59
2023/05/21 04:06:05;;;;;;;6.60;6.22;;;;;;;;;;4191696;28;20090;-59
2023/05/21 04:08:26;;;;;;;7.68;7.35;;;;;;;;;;4194043;28;20039;-59
2023/05/21 04:10:46;;;;;;;7.30;7.00;;;;;;;;;;4195796;28;20048;-58
2023/05/21 04:13:06;;;;;;;6.13;5.82;;;;;;;;;;4190733;28;20055;-59
2023/05/21 04:15:27;;;;;;;6.55;6.35;;;;;;;;;;4192225;28;20082;-59
2023/05/21 04:17:49;;;;;;;10.15;5.70;;;;;;;;;;4174034;28;20090;-60
2023/05/21 04:20:10;;;;;;;5.78;5.57;;;;;;;;;;4195928;28;20050;-60
2023/05/21 04:22:30;;;;;;;6.97;6.45;;;;;;;;;;4190208;28;20056;-59
2023/05/21 04:24:51;;;;;;;7.00;6.47;;;;;;;;;;4193419;28;20298;-59
2023/05/21 04:27:12;;;;;;;6.35;5.95;;;;;;;;;;4194901;28;20051;-59
2023/05/21 04:29:32;;;;;;;6.85;6.22;;;;;;;;;;4195388;28;20090;-59
2023/05/21 04:31:53;;;;;;;5.50;5.30;;;;;;;;;;4191411;28;20055;-59
2023/05/21 04:34:16;;;;;;;7.95;7.55;;;;;;;;;;4193064;28;20082;-60
2023/05/21 04:36:37;;;;;;;6.50;6.10;;;;;;;;;;4194238;28;20043;-60
2023/05/21 04:38:57;;;;;;;8.20;7.90;;;;;;;;;;4192300;28;20110;-60
2023/05/21 04:41:18;;;;;;;6.55;6.13;;;;;;;;;;4189680;28;20102;-60
2023/05/21 04:43:42;;;;;;;7.63;7.43;;;;;;;;;;4189726;28;20103;-59
2023/05/21 04:46:03;;;;;;;7.45;6.97;;;;;;;;;;4190719;28;20079;-59
2023/05/21 04:48:25;;;;;;;9.75;7.60;;;;;;;;;;4191052;28;20052;-59
2023/05/21 04:50:46;;;;;;;6.18;5.97;;;;;;;;;;4191596;28;20128;-60
2023/05/21 04:53:06;;;;;;;7.95;7.57;;;;;;;;;;4191848;28;20052;-60
2023/05/21 04:55:27;;;;;;;7.97;7.70;;;;;;;;;;4192182;28;20367;-59
2023/05/21 04:57:48;;;;;;;7.50;6.70;;;;;;;;;;4190328;28;20048;-59
2023/05/21 05:00:09;;;;;;;7.90;7.28;;;;;;;;;;4192504;28;20273;-59
2023/05/21 05:02:29;;;;;;;6.65;6.15;;;;;;;;;;4192909;28;20047;-59
2023/05/21 05:04:49;;;;;;;6.88;6.47;;;;;;;;;;4192252;28;20079;-59
2023/05/21 05:07:10;;;;;;;8.02;7.05;;;;;;;;;;4190907;28;20090;-59
2023/05/21 05:09:30;;;;;;;7.00;6.65;;;;;;;;;;4192373;28;20083;-59
2023/05/21 05:11:50;;;;;;;6.00;5.68;;;;;;;;;;4191986;28;20044;-59
2023/05/21 05:14:11;;;;;;;5.60;5.28;;;;;;;;;;4190634;28;20252;-59
2023/05/21 05:16:32;;;;;;;7.57;6.80;;;;;;;;;;4190831;28;20390;-60
2023/05/21 05:18:53;;;;;;;6.55;6.25;;;;;;;;;;4191474;28;20118;-60
2023/05/21 05:21:14;;;;;;;5.97;5.68;;;;;;;;;;4191185;28;20792;-59
2023/05/21 05:23:35;;;;;;;6.45;6.05;;;;;;;;;;4190093;28;20267;-59
2023/05/21 05:25:55;;;;;;;7.70;7.18;;;;;;;;;;4190542;28;20239;-59
2023/05/21 05:28:15;;;;;;;5.78;5.43;;;;;;;;;;4190150;28;20048;-59
2023/05/21 05:30:35;;;;;;;7.18;5.50;;;;;;;;;;4189740;28;20051;-59
2023/05/21 05:32:56;;;;;;;7.15;6.68;;;;;;;;;;4189888;28;20095;-60
2023/05/21 05:35:16;;;;;;;5.78;5.68;;;;;;;;;;4190784;28;20319;-59
2023/05/21 05:37:37;;;;;;;5.72;5.53;;;;;;;;;;4178041;28;20056;-59
2023/05/21 05:39:57;;;;;;;8.85;5.30;;;;;;;;;;4194927;28;20040;-59
2023/05/21 05:42:18;;;;;;;6.40;5.95;;;;;;;;;;4190049;28;20240;-59
2023/05/21 05:44:38;;;;;;;4.65;4.35;;;;;;;;;;4191517;28;20052;-59
2023/05/21 05:46:59;;;;;;;5.10;4.80;;;;;;;;;;4193592;28;20066;-59
2023/05/21 05:49:19;;;;;;;5.75;5.32;;;;;;;;;;4192770;28;20047;-59
2023/05/21 05:51:40;;;;;;;5.63;5.15;;;;;;;;;;4189819;28;20111;-60
2023/05/21 05:54:00;;;;;;;5.32;5.20;;;;;;;;;;4191956;28;20066;-59
2023/05/21 05:56:20;;;;;;;5.38;5.03;;;;;;;;;;4194019;28;20051;-60
2023/05/21 05:58:41;;;;;;;6.07;5.78;;;;;;;;;;4190275;28;20071;-60
2023/05/21 06:01:01;;;;;;;8.30;6.15;;;;;;;;;;4191000;28;20040;-60
2023/05/21 06:03:21;;;;;;;5.82;5.53;;;;;;;;;;4191642;28;20097;-59
2023/05/21 06:05:41;;;;;;;6.57;6.38;;;;;;;;;;4191564;28;20040;-60
2023/05/21 06:08:02;;;;;;;7.45;6.22;;;;;;;;;;4189375;28;20048;-59
2023/05/21 06:10:22;;;;;;;7.05;6.63;;;;;;;;;;4188378;28;20048;-60
2023/05/21 06:12:42;;;;;;;7.28;6.88;;;;;;;;;;4188643;28;20068;-59
2023/05/21 06:15:02;;;;;;;7.00;6.63;;;;;;;;;;4182397;28;20049;-59
2023/05/21 06:17:22;;;;;;;8.15;7.47;;;;;;;;;;4189554;28;20113;-59
2023/05/21 06:19:44;;;;;;;7.82;7.25;;;;;;;;;;4188810;28;20048;-59
2023/05/21 06:22:04;;;;;;;9.40;8.52;;;;;;;;;;4190586;28;20108;-59
2023/05/21 06:24:24;;;;;;;8.18;7.45;;;;;;;;;;4189133;28;20055;-60
2023/05/21 06:26:44;;;;;;;9.73;9.13;;;;;;;;;;4189066;28;20048;-59
2023/05/21 06:29:04;;;;;;;8.38;8.05;;;;;;;;;;4188776;28;20064;-59
2023/05/21 06:31:24;;;;;;;9.38;8.98;;;;;;;;;;4191452;28;20146;-59
2023/05/21 06:33:45;;;;;;;10.95;9.43;;;;;;;;;;4189721;28;20044;-59
2023/05/21 06:36:05;;;;;;;10.15;9.48;;;;;;;;;;4189041;28;20052;-59
2023/05/21 06:38:26;;;;;;;9.30;8.90;;;;;;;;;;4191006;28;20052;-60
2023/05/21 06:40:49;;;;;;;10.02;9.27;;;;;;;;;;4188669;28;20044;-59
2023/05/21 06:43:09;;;;;;;9.30;8.73;;;;;;;;;;4190801;28;20081;-60
2023/05/21 06:45:29;;;;;;;8.35;7.97;;;;;;;;;;4188758;28;20056;-59
2023/05/21 06:47:49;;;;;;;8.95;8.35;;;;;;;;;;4190707;28;20074;-59
2023/05/21 06:50:09;;;;;;;9.63;9.00;;;;;;;;;;4189954;28;20040;-60
2023/05/21 06:52:30;;;;;;;8.05;7.85;;;;;;;;;;4190394;28;20071;-59
2023/05/21 06:54:50;;;;;;;11.60;10.82;;;;;;;;;;4189021;28;20043;-59
2023/05/21 06:57:11;;;;;;;11.68;10.75;;;;;;;;;;4189827;28;20090;-59
2023/05/21 06:59:31;;;;;;;11.93;11.02;;;;;;;;;;4189338;28;20116;-59
2023/05/21 07:01:51;;;;;;;16.10;8.63;;;;;;;;;;4188929;28;20063;-60
2023/05/21 07:04:11;;;;;;;14.73;10.68;;;;;;;;;;4188874;28;20055;-59
2023/05/21 07:06:31;;;;;;;9.50;8.95;;;;;;;;;;4188276;28;20205;-59
2023/05/21 07:08:52;;;;;;;8.30;8.00;;;;;;;;;;4172605;28;20061;-60
2023/05/21 07:11:12;;;;;;;8.98;8.40;;;;;;;;;;4187353;28;20248;-60
2023/05/21 07:13:32;;;;;;;9.25;8.68;;;;;;;;;;4188751;28;20415;-59
2023/05/21 07:15:52;;;;;;;9.95;9.40;;;;;;;;;;4174443;28;20048;-59
2023/05/21 07:18:12;;;;;;;10.23;9.48;;;;;;;;;;4190874;28;20112;-59
2023/05/21 07:20:33;;;;;;;8.57;8.10;;;;;;;;;;4192571;28;20055;-59
2023/05/21 07:22:53;;;;;;;8.90;8.35;;;;;;;;;;4191659;28;20068;-59
2023/05/21 07:25:13;;;;;;;7.57;7.28;;;;;;;;;;4193481;28;20067;-60
2023/05/21 07:27:34;;;;;;;8.65;8.23;;;;;;;;;;4193855;28;20118;-59
2023/05/21 07:29:54;;;;;;;8.75;8.18;;;;;;;;;;4195315;28;20063;-60
2023/05/21 07:32:14;;;;;;;7.93;7.60;;;;;;;;;;4189241;28;20384;-59
2023/05/21 07:34:34;;;;;;;8.38;8.05;;;;;;;;;;4191545;28;20141;-60
2023/05/21 07:36:55;;;;;;;9.82;9.27;;;;;;;;;;4191781;28;20095;-59
2023/05/21 07:39:15;;;;;;;8.32;7.88;;;;;;;;;;4190285;28;20103;-59
2023/05/21 07:41:35;;;;;;;8.10;7.57;;;;;;;;;;4190029;28;20063;-59
2023/05/21 07:43:56;;;;;;;7.70;7.40;;;;;;;;;;4192371;28;20091;-59
2023/05/21 07:46:16;;;;;;;7.43;7.32;;;;;;;;;;4193191;28;20071;-59
2023/05/21 07:48:36;;;;;;;9.00;8.43;;;;;;;;;;4192081;28;20047;-59
2023/05/21 07:50:58;;;;;;;7.55;7.35;;;;;;;;;;4192129;28;20079;-59
2023/05/21 07:53:18;;;;;;;10.30;9.70;;;;;;;;;;4192822;28;20243;-59
2023/05/21 07:55:46;;;;;;;9.13;8.65;;;;;;;;;;4192657;28;20256;-59
2023/05/21 07:58:06;;;;;;;8.40;7.90;;;;;;;;;;4190502;28;20370;-59
2023/05/21 08:00:26;;;;;;;8.07;7.78;;;;;;;;;;4191355;28;20067;-59
2023/05/21 08:02:46;;;;;;;8.55;7.75;;;;;;;;;;4191728;28;20248;-59
2023/05/21 08:05:07;;;;;;;8.52;8.13;;;;;;;;;;4193761;28;20075;-60
2023/05/21 08:07:27;;;;;;;8.32;7.93;;;;;;;;;;4191713;28;20082;-59
2023/05/21 08:09:47;;;;;;;7.38;7.00;;;;;;;;;;4176776;28;20084;-59
2023/05/21 08:12:07;;;;;;;6.63;6.32;;;;;;;;;;4189067;28;20390;-60
2023/05/21 08:14:27;;;;;;;7.28;6.88;;;;;;;;;;4193388;28;20048;-59
2023/05/21 08:16:47;;;;;;;6.97;6.68;;;;;;;;;;4190718;28;20083;-59
2023/05/21 08:19:08;;;;;;;6.95;6.75;;;;;;;;;;4192649;28;20136;-59
2023/05/21 08:21:28;;;;;;;6.75;6.47;;;;;;;;;;4192668;28;20130;-59
2023/05/21 08:23:49;;;;;;;7.07;6.68;;;;;;;;;;4192607;28;20128;-59
2023/05/21 08:26:09;;;;;;;6.90;6.47;;;;;;;;;;4191750;28;20116;-59
2023/05/21 08:28:30;;;;;;;4.97;4.78;;;;;;;;;;4192545;28;20096;-59
2023/05/21 08:30:50;;;;;;;5.93;5.57;;;;;;;;;;4192313;28;20047;-59
2023/05/21 08:33:10;;;;;;;5.95;5.75;;;;;;;;;;4189984;28;20139;-60
2023/05/21 08:35:30;;;;;;;6.65;6.22;;;;;;;;;;4191741;28;20236;-59
2023/05/21 08:37:51;;;;;;;5.78;5.57;;;;;;;;;;4191641;28;20048;-59
2023/05/21 08:40:12;;;;;;;6.55;6.20;;;;;;;;;;4191245;28;20086;-59
2023/05/21 08:42:36;;;;;;;6.63;6.38;;;;;;;;;;4190809;28;20083;-59
2023/05/21 08:44:59;;;;;;;5.93;5.63;;;;;;;;;;4188924;28;20236;-60
2023/05/21 08:47:23;;;;;;;5.68;5.30;;;;;;;;;;4190900;28;20283;-59
2023/05/21 08:49:44;;;;;;;4.68;4.40;;;;;;;;;;4189884;28;20334;-59
2023/05/21 08:52:05;;;;;;;4.47;4.38;;;;;;;;;;4190367;28;20065;-59
2023/05/21 08:54:26;;;;;;;4.60;4.50;;;;;;;;;;4190325;28;20059;-59
2023/05/21 08:56:48;;;;;;;5.03;4.93;;;;;;;;;;4190364;28;20105;-59
2023/05/21 08:59:08;;;;;;;3.88;3.78;;;;;;;;;;4189109;28;20052;-60
2023/05/21 09:01:30;;;;;;;4.32;3.95;;;;;;;;;;4189030;28;20064;-60
2023/05/21 09:03:52;;;;;;;5.07;4.88;;;;;;;;;;4189199;28;20048;-59
2023/05/21 09:06:18;;;;;;;6.68;6.32;;;;;;;;;;4190540;28;20094;-60
2023/05/21 09:08:43;;;;;;;9.35;8.85;;;;;;;;;;4191139;28;20056;-59
2023/05/21 09:11:04;;;;;;;4.38;4.15;;;;;;;;;;4191606;28;20047;-59
2023/05/21 09:13:24;;;;;;;4.22;3.92;;;;;;;;;;4192094;28;20083;-59
2023/05/21 09:15:45;;;;;;;3.53;3.42;;;;;;;;;;4192278;28;20083;-60
2023/05/21 09:18:06;;;;;;;3.25;3.03;;;;;;;;;;4190990;28;20052;-59
2023/05/21 09:20:27;;;;;;;3.08;2.97;;;;;;;;;;4191668;28;20079;-59
2023/05/21 09:22:48;;;;;;;4.55;4.22;;;;;;;;;;4192198;28;20091;-60
2023/05/21 09:25:09;;;;;;;3.30;3.10;;;;;;;;;;4193316;28;20048;-60
2023/05/21 09:27:29;;;;;;;3.78;3.67;;;;;;;;;;4190344;28;20051;-60
2023/05/21 09:29:50;;;;;;;3.83;3.65;;;;;;;;;;4192154;28;20105;-59
2023/05/21 09:32:11;;;;;;;3.03;2.92;;;;;;;;;;4194442;28;20067;-60
2023/05/21 09:34:31;;;;;;;3.13;3.03;;;;;;;;;;4193210;28;20052;-59
2023/05/21 09:36:52;;;;;;;4.45;4.28;;;;;;;;;;4190065;28;20056;-59
2023/05/21 09:39:26;;;;;;;4.47;4.28;;;;;;;;;;4192442;28;20119;-59
2023/05/21 09:41:47;;;;;;;2.80;2.70;;;;;;;;;;4193463;28;20383;-59
2023/05/21 09:44:10;;;;;;;3.88;3.63;;;;;;;;;;4191310;28;20063;-59
2023/05/21 09:46:40;;;;;;;9.10;2.78;;;;;;;;;;4190715;28;20078;-59
2023/05/21 09:49:00;;;;;;;3.50;3.40;;;;;;;;;;4191939;28;20078;-60
2023/05/21 09:51:20;;;;;;;3.17;3.05;;;;;;;;;;4192934;28;20082;-60
2023/05/21 09:53:44;;;;;;;4.03;3.83;;;;;;;;;;4189292;28;20048;-60
2023/05/21 09:56:04;;;;;;;2.90;2.70;;;;;;;;;;4189946;28;20095;-59
2023/05/21 09:58:25;;;;;;;3.33;3.22;;;;;;;;;;4192809;28;20052;-59
2023/05/21 10:00:45;;;;;;;3.22;3.03;;;;;;;;;;4192058;28;20047;-59
2023/05/21 10:03:09;;;;;;;4.45;3.20;;;;;;;;;;4189908;28;20079;-60
2023/05/21 10:05:30;;;;;;;2.97;2.88;;;;;;;;;;4191475;28;20084;-60
2023/05/21 10:07:52;;;;;;;2.80;2.60;;;;;;;;;;4190366;28;20248;-59
2023/05/21 10:10:13;;;;;;;2.78;2.67;;;;;;;;;;4189826;28;20057;-59
2023/05/21 10:12:34;;;;;;;3.75;2.40;;;;;;;;;;4190127;28;20275;-59
2023/05/21 10:15:00;;;;;;;4.28;3.92;;;;;;;;;;4191238;28;20056;-59
2023/05/21 10:17:21;;;;;;;5.80;3.13;;;;;;;;;;4189846;28;20056;-59
2023/05/21 10:19:42;;;;;;;4.10;2.97;;;;;;;;;;4189573;28;20047;-59
2023/05/21 10:22:03;;;;;;;3.83;3.55;;;;;;;;;;4186975;28;20052;-59
2023/05/21 10:24:24;;;;;;;5.88;4.65;;;;;;;;;;4188355;28;20334;-59
2023/05/21 10:26:44;;;;;;;3.50;3.40;;;;;;;;;;4189421;28;20052;-60
2023/05/21 10:29:04;;;;;;;3.47;3.20;;;;;;;;;;4187757;28;20044;-59
2023/05/21 10:31:25;;;;;;;3.63;3.50;;;;;;;;;;4172865;28;20048;-59
2023/05/21 10:33:45;;;;;;;13.90;12.65;;;;;;;;;;4188034;28;20397;-59
2023/05/21 10:36:06;;;;;;;8.65;8.15;;;;;;;;;;4189693;28;20048;-59
2023/05/21 10:38:27;;;;;;;6.10;5.43;;;;;;;;;;4188430;28;20052;-59
2023/05/21 10:40:48;;;;;;;3.45;3.35;;;;;;;;;;4189662;28;20358;-59
2023/05/21 10:43:11;;;;;;;4.18;4.05;;;;;;;;;;4189209;28;20072;-59
2023/05/21 10:45:47;;;;;;;3.78;3.67;;;;;;;;;;4189196;28;20155;-59
2023/05/21 10:48:18;;;;;;;17.65;15.88;;;;;;;;;;4190720;28;20124;-59
2023/05/21 10:50:38;;;;;;;3.15;3.05;;;;;;;;;;4192512;28;20047;-59
2023/05/21 10:53:16;;;;;;;3.60;3.50;;;;;;;;;;4191263;28;20083;-59
2023/05/21 10:55:40;;;;;;;4.00;3.90;;;;;;;;;;4190364;28;20044;-59
2023/05/21 10:58:16;;;;;;;5.03;3.90;;;;;;;;;;4193905;28;20351;-59
2023/05/21 11:00:36;;;;;;;4.13;3.92;;;;;;;;;;4193377;28;20112;-59
2023/05/21 11:02:57;;;;;;;4.00;3.83;;;;;;;;;;4193295;28;20048;-59
2023/05/21 11:05:54;;;;;;;3.50;3.30;;;;;;;;;;4178195;28;20269;-59
2023/05/21 11:08:24;;;;;;;4.90;4.50;;;;;;;;;;4174461;28;20084;-59
2023/05/21 11:10:50;;;;;;;3.67;3.58;;;;;;;;;;4174313;28;20232;-59
2023/05/21 11:13:23;;;;;;;3.38;3.17;;;;;;;;;;4175668;28;20395;-59
2023/05/21 11:16:01;;;;;;;3.85;3.75;;;;;;;;;;4175570;28;20054;-60
2023/05/21 11:18:21;;;;;;;3.63;3.53;;;;;;;;;;4175548;28;20486;-60
2023/05/21 11:20:44;;;;;;;5.25;4.97;;;;;;;;;;4173539;28;20088;-60
2023/05/21 11:23:04;;;;;;;;;;;;;;;;;;4176972;28;20053;-59
2023/05/21 11:25:24;;;;;;;3.63;3.47;;;;;;;;;;4175728;28;20005;-59
2023/05/21 11:27:44;;;;;;;3.75;3.45;;;;;;;;;;4177304;28;20073;-60
2023/05/21 11:30:18;;;;;;;4.20;4.07;;;;;;;;;;4174776;28;20099;-59
2023/05/21 11:32:39;;;;;;;8.35;3.28;;;;;;;;;;4176162;28;20048;-60
2023/05/21 11:35:01;;;;;;;2.70;2.60;;;;;;;;;;4174387;28;20069;-59
2023/05/21 11:37:26;;;;;;;3.33;3.03;;;;;;;;;;4175041;28;20072;-59
2023/05/21 11:39:47;;;;;;;3.78;3.60;;;;;;;;;;4175428;28;20045;-59
2023/05/21 11:42:07;;;;;;;3.95;3.65;;;;;;;;;;4183657;28;20059;-59
2023/05/21 11:44:37;;;;;;;3.33;3.13;;;;;;;;;;4192471;28;20087;-59
2023/05/21 11:46:58;;;;;;;3.88;3.58;;;;;;;;;;4191849;28;20057;-60
2023/05/21 11:49:21;;;;;;;4.15;4.05;;;;;;;;;;4190220;28;20163;-59
2023/05/21 11:51:41;;;;;;;;;;;;;;;;;;4191928;28;20260;-59
2023/05/21 11:54:02;;;;;;;3.20;3.00;;;;;;;;;;4189716;28;20263;-59
2023/05/21 11:56:23;;;;;;;3.55;3.33;;;;;;;;;;4189474;28;20058;-60
2023/05/21 11:58:43;;;;;;;4.50;4.40;;;;;;;;;;4192003;28;20051;-59
2023/05/21 12:01:03;;;;;;;4.90;4.60;;;;;;;;;;4191871;28;20104;-59
2023/05/21 12:03:25;;;;;;;3.35;3.25;;;;;;;;;;4191413;28;20562;-59
2023/05/21 12:05:46;;;;;;;3.65;3.47;;;;;;;;;;4191535;28;20531;-59
2023/05/21 12:08:07;;;;;;;4.97;4.78;;;;;;;;;;4191304;28;20497;-59
2023/05/21 12:10:27;;;;;;;4.05;3.95;;;;;;;;;;4174448;28;20060;-59
2023/05/21 12:12:47;;;;;;;3.90;3.80;;;;;;;;;;4190953;28;20424;-59
2023/05/21 12:15:17;;;;;;;4.30;4.00;;;;;;;;;;4189818;28;20271;-59
2023/05/21 12:17:38;;;;;;;3.22;3.13;;;;;;;;;;4193323;28;20068;-59
2023/05/21 12:19:58;;;;;;;4.30;4.10;;;;;;;;;;4176149;28;20166;-60
2023/05/21 12:22:18;;;;;;;3.90;3.80;;;;;;;;;;4191689;28;20102;-58
2023/05/21 12:24:39;;;;;;;4.05;3.95;;;;;;;;;;4193231;28;20051;-59
2023/05/21 12:27:00;;;;;;;3.67;3.47;;;;;;;;;;4193644;28;20083;-59
2023/05/21 12:29:22;;;;;;;4.13;3.90;;;;;;;;;;4191158;28;20074;-60
2023/05/21 12:31:49;;;;;;;3.25;3.05;;;;;;;;;;4192266;28;20048;-59
2023/05/21 12:34:09;;;;;;;3.33;3.13;;;;;;;;;;4195282;28;20139;-59
2023/05/21 12:36:30;;;;;;;3.13;3.03;;;;;;;;;;4192855;28;20044;-59
2023/05/21 12:38:50;;;;;;;3.45;3.22;;;;;;;;;;4191321;28;20061;-59
2023/05/21 12:41:10;;;;;;;4.05;3.85;;;;;;;;;;4193253;28;20431;-60
2023/05/21 12:43:31;;;;;;;4.57;4.28;;;;;;;;;;4195174;28;20089;-59
2023/05/21 12:45:52;;;;;;;4.47;4.28;;;;;;;;;;4195909;28;20098;-59
2023/05/21 12:48:13;;;;;;;5.32;4.10;;;;;;;;;;4191615;28;20039;-59
2023/05/21 12:50:34;;;;;;;11.35;5.28;;;;;;;;;;4193853;28;20079;-59
2023/05/21 12:52:55;;;;;;;4.13;3.80;;;;;;;;;;4195238;28;20070;-60
2023/05/21 12:55:16;;;;;;;4.80;3.35;;;;;;;;;;4190547;28;20082;-59
2023/05/21 12:57:37;;;;;;;3.58;3.22;;;;;;;;;;4191648;28;20083;-59
2023/05/21 12:59:59;;;;;;;4.25;3.92;;;;;;;;;;4192788;28;20059;-59
2023/05/21 13:02:20;;;;;;;3.67;3.58;;;;;;;;;;4192178;28;20043;-60
2023/05/21 13:04:40;;;;;;;4.72;4.38;;;;;;;;;;4187829;28;20055;-60
2023/05/21 13:07:00;;;;;;;4.63;3.72;;;;;;;;;;4191742;28;20124;-59
2023/05/21 13:09:24;;;;;;;3.58;3.47;;;;;;;;;;4192379;28;20059;-59
2023/05/21 13:11:44;;;;;;;4.53;4.38;;;;;;;;;;4192172;28;20087;-59
2023/05/21 13:14:05;;;;;;;3.95;3.85;;;;;;;;;;4188842;28;20111;-60
2023/05/21 13:16:25;;;;;;;4.50;3.38;;;;;;;;;;4189413;28;20039;-60
2023/05/21 13:18:45;;;;;;;4.00;3.90;;;;;;;;;;4188656;28;20102;-59
2023/05/21 13:21:05;;;;;;;5.70;3.78;;;;;;;;;;4190440;28;20055;-59
2023/05/21 13:23:25;;;;;;;3.00;2.90;;;;;;;;;;4190640;28;20079;-59
2023/05/21 13:25:45;;;;;;;2.90;2.70;;;;;;;;;;4190517;28;20087;-59
2023/05/21 13:28:07;;;;;;;4.00;3.80;;;;;;;;;;4191644;28;20087;-59
2023/05/21 13:30:27;;;;;;;3.88;3.55;;;;;;;;;;4189777;28;20393;-60
2023/05/21 13:32:48;;;;;;;3.50;3.30;;;;;;;;;;4190851;28;20236;-59
2023/05/21 13:35:09;;;;;;;3.25;3.15;;;;;;;;;;4190533;28;20104;-59
2023/05/21 13:37:30;;;;;;;3.25;3.15;;;;;;;;;;4191150;28;20098;-59
2023/05/21 13:39:50;;;;;;;3.50;3.40;;;;;;;;;;4189534;28;20056;-59
2023/05/21 13:42:10;;;;;;;3.20;3.00;;;;;;;;;;4190250;28;20430;-59
2023/05/21 13:44:35;;;;;;;3.40;3.17;;;;;;;;;;4191009;28;20039;-59
2023/05/21 13:46:55;;;;;;;3.80;3.60;;;;;;;;;;4189356;28;20108;-60
2023/05/21 13:49:16;;;;;;;3.00;2.75;;;;;;;;;;4189233;28;20232;-60
2023/05/21 13:51:36;;;;;;;4.18;3.83;;;;;;;;;;4189599;28;20048;-59
2023/05/21 13:53:59;;;;;;;3.95;3.75;;;;;;;;;;4188497;28;20056;-60
2023/05/21 13:56:21;;;;;;;3.92;3.63;;;;;;;;;;4188519;28;20048;-59
2023/05/21 13:58:41;;;;;;;4.13;3.75;;;;;;;;;;4188599;28;20276;-59
2023/05/21 14:01:02;;;;;;;3.58;3.38;;;;;;;;;;4191695;28;20056;-59
2023/05/21 14:03:22;;;;;;;4.57;4.20;;;;;;;;;;4192683;28;20047;-60
2023/05/21 14:05:43;;;;;;;3.95;3.70;;;;;;;;;;4190899;28;20047;-59
2023/05/21 14:08:03;;;;;;;3.90;3.70;;;;;;;;;;4190571;28;20109;-60